Time;durP1;ratioP1;P1;durP2;ratioP2;P2;SDS_P1;SDS_P2;PMS_P1;PMS_P2;Temp;Humidity;BMP_temperature;BMP_pressure;BME280_temperature;BME280_humidity;BME280_pressure;Samples;Min_cycle;Max_cycle;Signal;HPM_P1;HPM_P2
2021/06/19 00:00:42;;;;;;;23.30;6.38;;;22.40;99.90;;;;;;5031850;28;20049;-89
2021/06/19 00:03:11;;;;;;;20.95;5.38;;;22.40;99.90;;;;;;5031233;28;20057;-88
2021/06/19 00:05:38;;;;;;;13.73;5.65;;;22.30;99.90;;;;;;5035735;28;20109;-87
2021/06/19 00:08:08;;;;;;;18.05;5.57;;;22.30;99.90;;;;;;5063738;28;20049;-88
2021/06/19 00:10:37;;;;;;;10.60;5.25;;;22.10;99.90;;;;;;5027999;28;20056;-88
2021/06/19 00:13:04;;;;;;;19.23;5.30;;;21.90;99.90;;;;;;5032123;28;20133;-86
2021/06/19 00:15:31;;;;;;;17.33;5.10;;;21.90;99.90;;;;;;5031467;28;20143;-85
2021/06/19 00:18:00;;;;;;;25.95;6.82;;;21.70;99.90;;;;;;5060607;28;20045;-87
2021/06/19 00:20:27;;;;;;;20.40;6.93;;;21.20;99.90;;;;;;5014333;28;20463;-87
2021/06/19 00:22:55;;;;;;;25.85;8.77;;;20.60;99.90;;;;;;5060513;28;20532;-87
2021/06/19 00:25:23;;;;;;;20.95;6.80;;;20.20;99.90;;;;;;5024907;28;20065;-86
2021/06/19 00:27:50;;;;;;;27.65;8.27;;;19.80;99.90;;;;;;5030035;28;20049;-85
2021/06/19 00:30:18;;;;;;;17.85;6.63;;;19.50;99.90;;;;;;5031413;28;20443;-86
2021/06/19 00:32:46;;;;;;;14.40;6.22;;;19.20;99.90;;;;;;5033990;28;20072;-87
2021/06/19 00:35:14;;;;;;;19.83;7.68;;;18.90;99.90;;;;;;5028999;28;20059;-85
2021/06/19 00:37:42;;;;;;;20.35;8.27;;;18.70;99.90;;;;;;5031110;28;20483;-86
2021/06/19 00:40:12;;;;;;;22.15;8.52;;;18.70;99.90;;;;;;5031485;28;20155;-87
2021/06/19 00:42:57;;;;;;;21.30;9.82;;;18.50;99.90;;;;;;5064267;28;20357;-86
2021/06/19 00:45:31;;;;;;;17.92;9.93;;;18.40;99.90;;;;;;5023537;28;20051;-86
2021/06/19 00:47:58;;;;;;;24.75;12.73;;;18.40;99.90;;;;;;5027188;28;20542;-87
2021/06/19 00:50:26;;;;;;;23.40;11.68;;;18.30;99.90;;;;;;5026538;28;20464;-86
2021/06/19 00:52:53;;;;;;;24.50;11.63;;;18.30;99.90;;;;;;5030301;28;20069;-86
2021/06/19 00:55:20;;;;;;;26.23;12.15;;;18.40;99.90;;;;;;5030688;28;20498;-86
2021/06/19 00:57:49;;;;;;;24.02;12.32;;;18.40;99.90;;;;;;5030201;28;20449;-85
2021/06/19 01:00:19;;;;;;;27.95;12.55;;;18.40;99.90;;;;;;5028803;28;20136;-85
2021/06/19 01:02:47;;;;;;;30.13;13.43;;;18.40;99.90;;;;;;5029046;28;20068;-86
2021/06/19 01:05:17;;;;;;;34.25;12.80;;;18.40;99.90;;;;;;5028556;28;20375;-84
2021/06/19 01:07:46;;;;;;;29.15;12.73;;;18.50;99.90;;;;;;5030523;28;20428;-85
2021/06/19 01:10:14;;;;;;;20.92;12.20;;;18.60;99.90;;;;;;5029728;28;20045;-86
2021/06/19 01:12:43;;;;;;;23.60;12.10;;;18.60;99.90;;;;;;5030766;28;20045;-85
2021/06/19 01:15:10;;;;;;;25.55;12.93;;;18.70;99.90;;;;;;5030995;28;20508;-86
2021/06/19 01:17:37;;;;;;;22.23;11.95;;;18.70;99.90;;;;;;5027893;28;20051;-86
2021/06/19 01:20:04;;;;;;;27.70;11.88;;;18.70;99.90;;;;;;5028571;28;20417;-84
2021/06/19 01:22:35;;;;;;;19.48;10.15;;;18.70;99.90;;;;;;5030573;28;20091;-85
2021/06/19 01:25:05;;;;;;;26.88;10.82;;;18.70;99.90;;;;;;5029483;28;20056;-86
2021/06/19 01:27:32;;;;;;;25.33;11.63;;;18.80;99.90;;;;;;5023914;28;20092;-85
2021/06/19 01:30:00;;;;;;;25.63;10.43;;;18.80;99.90;;;;;;5030059;28;20494;-86
2021/06/19 01:32:31;;;;;;;28.05;11.70;;;18.80;99.90;;;;;;5028766;28;20456;-86
2021/06/19 01:34:58;;;;;;;29.77;12.40;;;18.80;99.90;;;;;;5060722;28;20071;-85
2021/06/19 01:37:34;;;;;;;24.40;12.07;;;18.70;99.90;;;;;;5030847;28;20053;-87
2021/06/19 01:40:09;;;;;;;27.85;13.65;;;18.70;99.90;;;;;;5028263;28;20045;-87
2021/06/19 01:42:44;;;;;;;30.23;13.82;;;18.60;99.90;;;;;;5027730;28;20144;-88
2021/06/19 01:45:18;;;;;;;31.33;14.70;;;18.60;99.90;;;;;;5028752;28;20085;-87
2021/06/19 01:47:45;;;;;;;23.13;13.40;;;18.50;99.90;;;;;;5026146;28;20054;-89
2021/06/19 01:50:21;;;;;;;36.63;17.70;;;18.40;99.90;;;;;;5023429;28;20129;-86
2021/06/19 01:52:48;;;;;;;30.85;17.42;;;18.40;99.90;;;;;;5021693;28;20054;-87
2021/06/19 01:55:16;;;;;;;32.00;16.85;;;18.40;99.90;;;;;;5021280;28;20144;-88
2021/06/19 01:57:44;;;;;;;32.03;17.80;;;18.30;99.90;;;;;;5028126;28;20132;-87
2021/06/19 02:00:14;;;;;;;33.03;17.25;;;18.30;99.90;;;;;;5029163;28;20041;-86
2021/06/19 02:02:42;;;;;;;42.25;19.13;;;18.20;99.90;;;;;;5029343;28;20460;-88
2021/06/19 02:05:11;;;;;;;45.60;19.83;;;18.10;99.90;;;;;;5026046;28;20164;-87
2021/06/19 02:08:10;;;;;;;39.92;20.50;;;18.10;99.90;;;;;;5030352;28;20042;-88
2021/06/19 02:10:42;;;;;;;46.00;22.65;;;18.10;99.90;;;;;;5017299;28;20056;-88
2021/06/19 02:13:10;;;;;;;41.50;22.63;;;18.10;99.90;;;;;;5030235;28;20128;-86
2021/06/19 02:15:39;;;;;;;40.58;22.33;;;18.20;99.90;;;;;;5061646;28;20340;-86
2021/06/19 02:18:06;;;;;;;41.45;21.02;;;18.10;99.90;;;;;;5031133;28;20057;-87
2021/06/19 02:20:33;;;;;;;37.45;21.25;;;18.00;99.90;;;;;;5025642;28;20194;-86
2021/06/19 02:23:00;;;;;;;33.97;18.40;;;18.10;99.90;;;;;;5025223;28;20046;-87
2021/06/19 02:25:29;;;;;;;28.77;16.23;;;18.00;99.90;;;;;;5024160;28;20045;-87
2021/06/19 02:28:02;;;;;;;28.85;16.85;;;18.00;99.90;;;;;;5030250;28;20045;-86
2021/06/19 02:30:36;;;;;;;32.63;17.33;;;17.80;99.90;;;;;;5032204;28;20136;-87
2021/06/19 02:33:06;;;;;;;44.90;17.98;;;17.90;99.90;;;;;;5030431;28;20068;-86
2021/06/19 02:35:39;;;;;;;31.65;18.27;;;17.80;99.90;;;;;;5031065;28;20052;-85
2021/06/19 02:38:10;;;;;;;31.95;17.48;;;17.80;99.90;;;;;;5032952;28;20421;-87
2021/06/19 02:40:45;;;;;;;28.45;17.65;;;17.70;99.90;;;;;;5031440;28;20136;-87
2021/06/19 02:43:12;;;;;;;35.30;18.58;;;17.70;99.90;;;;;;5025195;28;20048;-88
2021/06/19 02:45:39;;;;;;;33.47;18.33;;;17.70;99.90;;;;;;5032942;28;20466;-87
2021/06/19 02:48:07;;;;;;;35.90;18.65;;;17.70;99.90;;;;;;5031174;28;20053;-87
2021/06/19 02:50:39;;;;;;;32.10;18.38;;;17.60;99.90;;;;;;5033472;28;20053;-86
2021/06/19 02:53:07;;;;;;;39.05;18.08;;;17.50;99.90;;;;;;5030855;28;20144;-87
2021/06/19 02:55:37;;;;;;;39.63;20.02;;;17.50;99.90;;;;;;5030561;28;20576;-87
2021/06/19 02:58:08;;;;;;;34.17;20.20;;;17.60;99.90;;;;;;5033447;28;20088;-88
2021/06/19 03:00:35;;;;;;;36.10;20.55;;;17.60;99.90;;;;;;5064896;28;20042;-85
2021/06/19 03:03:04;;;;;;;32.20;21.35;;;17.70;99.90;;;;;;5032106;28;20148;-86
2021/06/19 03:05:36;;;;;;;33.67;20.33;;;17.80;99.90;;;;;;5031684;28;20379;-86
2021/06/19 03:08:03;;;;;;;34.80;21.42;;;17.80;99.90;;;;;;5033673;28;20196;-87
2021/06/19 03:10:34;;;;;;;36.67;22.73;;;17.80;99.90;;;;;;5029784;28;20135;-87
2021/06/19 03:13:01;;;;;;;34.72;22.02;;;17.90;99.90;;;;;;5028731;28;20326;-85
2021/06/19 03:15:28;;;;;;;37.85;22.58;;;17.90;99.90;;;;;;5028947;28;20140;-87
2021/06/19 03:17:55;;;;;;;30.98;19.98;;;18.00;99.90;;;;;;5032948;28;20059;-88
2021/06/19 03:20:23;;;;;;;33.47;19.15;;;18.10;99.90;;;;;;5033731;28;20057;-86
2021/06/19 03:22:54;;;;;;;34.08;18.20;;;18.10;99.90;;;;;;5032129;28;20115;-87
2021/06/19 03:25:24;;;;;;;37.92;20.48;;;18.10;99.90;;;;;;5031542;28;20073;-87
2021/06/19 03:27:58;;;;;;;24.98;17.52;;;18.20;99.90;;;;;;5029425;28;20046;-85
2021/06/19 03:30:26;;;;;;;35.35;19.15;;;18.20;99.90;;;;;;5029831;28;20115;-86
2021/06/19 03:32:53;;;;;;;30.63;17.40;;;18.20;99.90;;;;;;5032558;28;20042;-86
2021/06/19 03:35:23;;;;;;;30.85;18.63;;;18.20;99.90;;;;;;5029886;28;20132;-86
2021/06/19 03:37:53;;;;;;;28.38;18.20;;;18.30;99.90;;;;;;5032324;28;20053;-87
2021/06/19 03:40:20;;;;;;;37.78;18.75;;;18.30;99.90;;;;;;5028292;28;20132;-87
2021/06/19 03:42:50;;;;;;;30.23;17.73;;;18.30;99.90;;;;;;5025318;28;20060;-86
2021/06/19 03:45:27;;;;;;;33.42;18.85;;;18.30;99.90;;;;;;5045813;28;20045;-86
2021/06/19 03:47:57;;;;;;;28.90;17.67;;;18.30;99.90;;;;;;5063859;28;20072;-86
2021/06/19 03:50:27;;;;;;;28.73;16.55;;;18.40;99.90;;;;;;5030741;28;20128;-88
2021/06/19 03:52:57;;;;;;;27.77;16.55;;;18.40;99.90;;;;;;5029913;28;20049;-87
2021/06/19 03:55:26;;;;;;;26.48;15.85;;;18.40;99.90;;;;;;5063243;28;20048;-88
2021/06/19 03:57:57;;;;;;;22.30;15.35;;;18.40;99.90;;;;;;5026191;28;20661;-87
2021/06/19 04:00:29;;;;;;;26.77;14.55;;;18.40;99.90;;;;;;5024008;28;20167;-86
2021/06/19 04:02:57;;;;;;;27.52;15.63;;;18.40;99.90;;;;;;5027565;28;20136;-87
2021/06/19 04:05:25;;;;;;;22.45;13.63;;;18.50;99.90;;;;;;5023872;28;20057;-87
2021/06/19 04:07:53;;;;;;;24.20;12.50;;;18.50;99.90;;;;;;5030437;28;20132;-86
2021/06/19 04:10:20;;;;;;;29.33;14.25;;;18.50;99.90;;;;;;5031386;28;20393;-87
2021/06/19 04:12:48;;;;;;;19.95;13.73;;;18.60;99.90;;;;;;5032544;28;20129;-87
2021/06/19 04:15:18;;;;;;;23.27;14.43;;;18.60;99.90;;;;;;5030108;28;20052;-87
2021/06/19 04:17:45;;;;;;;25.50;13.40;;;18.60;99.90;;;;;;5030734;28;20176;-87
2021/06/19 04:20:16;;;;;;;29.15;14.10;;;18.60;99.90;;;;;;5032540;28;20679;-87
2021/06/19 04:22:44;;;;;;;27.93;13.17;;;18.60;99.90;;;;;;5030041;28;20046;-87
2021/06/19 04:25:15;;;;;;;21.05;12.90;;;18.60;99.90;;;;;;5029682;28;20045;-87
2021/06/19 04:27:51;;;;;;;23.95;13.50;;;18.70;99.90;;;;;;5027765;28;20041;-87
2021/06/19 04:30:20;;;;;;;22.98;13.80;;;18.70;99.90;;;;;;5031524;28;20136;-87
2021/06/19 04:32:48;;;;;;;21.27;12.90;;;18.80;99.90;;;;;;5030268;28;20115;-87
2021/06/19 04:35:15;;;;;;;19.67;13.18;;;18.80;99.90;;;;;;5024177;28;20583;-87
2021/06/19 04:37:43;;;;;;;31.30;14.07;;;18.80;99.90;;;;;;5030572;28;20096;-87
2021/06/19 04:40:17;;;;;;;21.63;13.77;;;18.80;99.90;;;;;;5030498;28;20038;-87
2021/06/19 04:42:55;;;;;;;25.25;12.90;;;18.80;99.90;;;;;;5027320;28;20057;-87
2021/06/19 04:45:22;;;;;;;21.55;13.70;;;18.90;99.90;;;;;;5028794;28;20063;-87
2021/06/19 04:47:50;;;;;;;24.60;13.40;;;18.90;99.90;;;;;;5030556;28;20089;-87
2021/06/19 04:50:16;;;;;;;23.55;14.73;;;18.90;99.90;;;;;;5031542;28;20061;-86
2021/06/19 04:52:45;;;;;;;24.27;15.15;;;18.90;99.90;;;;;;5018098;28;20037;-87
2021/06/19 04:55:15;;;;;;;21.67;15.93;;;18.90;99.90;;;;;;5062442;28;20042;-86
2021/06/19 04:57:43;;;;;;;24.33;14.27;;;18.90;99.90;;;;;;5046463;28;20071;-86
2021/06/19 05:12:03;;;;;;;21.52;13.30;;;19.30;99.90;;;;;;5020101;28;20376;-84
2021/06/19 05:14:30;;;;;;;23.02;13.88;;;19.40;99.90;;;;;;5026591;28;20124;-83
2021/06/19 05:16:57;;;;;;;25.25;13.57;;;19.50;99.90;;;;;;5030116;28;20049;-84
2021/06/19 05:19:29;;;;;;;19.15;13.63;;;19.60;99.90;;;;;;5057500;28;20084;-84
2021/06/19 05:21:55;;;;;;;20.15;12.95;;;19.60;99.90;;;;;;5031033;28;20045;-86
2021/06/19 05:24:22;;;;;;;18.67;12.25;;;19.80;99.90;;;;;;5026761;28;20056;-86
2021/06/19 05:26:49;;;;;;;25.70;12.45;;;19.90;99.90;;;;;;5025485;28;20137;-89
2021/06/19 05:29:16;;;;;;;18.98;13.18;;;20.10;99.90;;;;;;5022787;28;20111;-88
2021/06/19 05:31:44;;;;;;;22.48;13.63;;;20.10;99.90;;;;;;5028724;28;20073;-89
2021/06/19 05:34:13;;;;;;;23.98;13.80;;;20.00;99.90;;;;;;5028615;28;20067;-89
2021/06/19 05:36:40;;;;;;;25.30;13.35;;;19.90;99.90;;;;;;5030543;28;20077;-88
2021/06/19 05:39:07;;;;;;;24.40;13.70;;;20.00;99.90;;;;;;5032358;28;20056;-89
2021/06/19 05:41:38;;;;;;;24.77;13.55;;;20.10;99.90;;;;;;5021508;28;20117;-89
2021/06/19 05:44:08;;;;;;;19.98;12.60;;;20.20;99.90;;;;;;5028208;28;20041;-87
2021/06/19 05:46:36;;;;;;;22.08;12.18;;;20.40;99.90;;;;;;5026790;28;20491;-89
2021/06/19 05:49:05;;;;;;;21.17;11.32;;;20.60;99.90;;;;;;5029289;28;20053;-87
2021/06/19 05:51:32;;;;;;;22.88;13.10;;;20.70;99.90;;;;;;5028374;28;20132;-88
2021/06/19 05:54:03;;;;;;;21.58;12.02;;;20.80;99.90;;;;;;5015339;28;20081;-87
2021/06/19 05:56:30;;;;;;;24.00;11.05;;;20.90;99.90;;;;;;5027304;28;20088;-88
2021/06/19 05:58:57;;;;;;;18.42;10.98;;;21.10;99.90;;;;;;5027864;28;20096;-89
2021/06/19 06:01:30;;;;;;;18.30;9.95;;;21.30;99.90;;;;;;5024036;28;20046;-89
2021/06/19 06:04:00;;;;;;;16.35;9.48;;;21.50;99.90;;;;;;5032389;28;20172;-88
2021/06/19 06:06:29;;;;;;;17.50;9.88;;;21.70;99.90;;;;;;5032027;28;20133;-88
2021/06/19 06:08:56;;;;;;;21.10;9.85;;;21.80;99.90;;;;;;5029266;28;20046;-87
2021/06/19 06:11:23;;;;;;;24.00;11.20;;;22.00;99.90;;;;;;5032682;28;20049;-88
2021/06/19 06:13:54;;;;;;;15.73;9.25;;;22.10;99.90;;;;;;5027998;28;20050;-89
2021/06/19 06:16:22;;;;;;;16.60;10.67;;;22.40;99.90;;;;;;5032870;28;20071;-87
2021/06/19 06:18:49;;;;;;;20.02;10.43;;;22.70;99.90;;;;;;5032833;28;20096;-88
2021/06/19 06:21:19;;;;;;;22.50;11.02;;;22.80;99.90;;;;;;5036767;28;20064;-87
2021/06/19 06:23:45;;;;;;;21.08;9.55;;;22.90;99.90;;;;;;5032924;28;20042;-88
2021/06/19 06:26:15;;;;;;;16.15;8.82;;;23.20;99.90;;;;;;5034335;28;20068;-88
2021/06/19 06:28:43;;;;;;;18.92;9.20;;;23.50;99.90;;;;;;5033628;28;20096;-87
2021/06/19 06:31:10;;;;;;;14.43;8.73;;;23.50;99.90;;;;;;5032464;28;20057;-88
2021/06/19 06:33:39;;;;;;;17.65;9.35;;;23.60;99.90;;;;;;5029733;28;20128;-89
2021/06/19 06:36:07;;;;;;;13.38;8.52;;;23.60;99.90;;;;;;5026063;28;20141;-89
2021/06/19 06:38:33;;;;;;;17.67;7.85;;;23.90;99.90;;;;;;5028898;28;20144;-88
2021/06/19 06:41:00;;;;;;;19.10;8.55;;;24.40;99.90;;;;;;5032440;28;20049;-89
2021/06/19 06:43:27;;;;;;;21.23;8.77;;;24.60;99.90;;;;;;5025798;28;20137;-91
2021/06/19 06:45:54;;;;;;;16.63;8.55;;;24.60;99.90;;;;;;5032844;28;20124;-89
2021/06/19 06:48:21;;;;;;;19.65;8.75;;;24.50;99.90;;;;;;5025039;28;20065;-88
2021/06/19 06:50:51;;;;;;;15.95;7.75;;;24.40;99.90;;;;;;5064974;28;20049;-90
2021/06/19 06:53:21;;;;;;;12.00;7.60;;;24.60;99.90;;;;;;5034090;28;20132;-89
2021/06/19 06:55:48;;;;;;;12.05;6.97;;;24.80;99.90;;;;;;5032859;28;20369;-89
2021/06/19 06:58:15;;;;;;;19.67;7.45;;;25.10;99.90;;;;;;5030906;28;20050;-91
2021/06/19 07:00:42;;;;;;;20.38;7.85;;;25.40;99.90;;;;;;5041506;28;20150;-90
2021/06/19 07:03:08;;;;;;;13.57;6.88;;;25.60;99.90;;;;;;5033378;28;20128;-89
2021/06/19 07:05:36;;;;;;;14.52;6.75;;;25.80;99.90;;;;;;5034888;28;20128;-91
2021/06/19 07:08:02;;;;;;;14.85;6.60;;;25.90;99.90;;;;;;5028337;28;20049;-90
2021/06/19 07:10:29;;;;;;;18.92;6.82;;;26.30;99.90;;;;;;5025456;28;20132;-89
2021/06/19 07:12:59;;;;;;;13.68;7.55;;;26.60;99.90;;;;;;5014572;28;20405;-92
2021/06/19 07:15:26;;;;;;;16.30;7.53;;;26.50;99.90;;;;;;5033805;28;20058;-93
2021/06/19 07:17:53;;;;;;;18.02;7.35;;;26.60;99.90;;;;;;5033652;28;20174;-91
2021/06/19 07:20:20;;;;;;;14.93;7.15;;;26.70;99.90;;;;;;5032938;28;20056;-90
2021/06/19 07:22:49;;;;;;;13.82;7.25;;;26.90;99.90;;;;;;5028785;28;20053;-88
2021/06/19 07:25:19;;;;;;;12.45;7.15;;;26.70;99.90;;;;;;5031361;28;20121;-91
2021/06/19 07:28:05;;;;;;;23.73;7.38;;;26.40;99.90;;;;;;5032251;28;20052;-89
2021/06/19 07:30:34;;;;;;;15.73;6.97;;;26.80;99.90;;;;;;5021703;28;20065;-90
2021/06/19 07:33:01;;;;;;;14.02;6.53;;;27.00;99.90;;;;;;5032590;28;20076;-91
2021/06/19 07:35:28;;;;;;;20.50;7.38;;;27.20;99.90;;;;;;5033109;28;20049;-93
2021/06/19 07:38:19;;;;;;;13.45;6.25;;;27.30;99.90;;;;;;5033131;28;20053;-91
2021/06/19 07:40:49;;;;;;;16.48;7.20;;;27.70;99.90;;;;;;5030573;28;20136;-91
2021/06/19 07:43:18;;;;;;;11.20;7.15;;;28.00;99.90;;;;;;5017032;28;20124;-89
2021/06/19 07:45:45;;;;;;;14.27;6.63;;;27.90;99.90;;;;;;5031677;28;20085;-90
2021/06/19 07:48:11;;;;;;;14.55;7.00;;;27.90;99.90;;;;;;5031306;28;20063;-89
2021/06/19 07:50:58;;;;;;;13.48;6.35;;;28.10;99.90;;;;;;5027073;28;20084;-88
2021/06/19 07:53:27;;;;;;;15.63;6.70;;;28.40;99.90;;;;;;5030534;28;20151;-90
2021/06/19 07:55:54;;;;;;;18.77;6.13;;;28.70;99.90;;;;;;5029942;28;20125;-90
2021/06/19 07:58:21;;;;;;;13.63;6.05;;;28.90;99.90;;;;;;5029130;28;20089;-89
2021/06/19 08:00:48;;;;;;;22.42;7.18;;;29.20;99.90;;;;;;5014860;28;20050;-91
2021/06/19 08:03:17;;;;;;;17.15;6.13;;;29.20;99.90;;;;;;5032279;28;20061;-92
2021/06/19 08:05:44;;;;;;;18.83;6.47;;;29.20;99.90;;;;;;5047818;28;20077;-92
2021/06/19 08:08:11;;;;;;;18.55;6.50;;;29.10;99.90;;;;;;5031432;28;20049;-90
2021/06/19 08:10:58;;;;;;;17.63;6.20;;;29.10;99.90;;;;;;5029136;28;20053;-89
2021/06/19 08:13:25;;;;;;;12.82;6.03;;;29.50;99.70;;;;;;5063817;28;20053;-90
2021/06/19 08:15:56;;;;;;;18.35;6.13;;;29.80;97.70;;;;;;5028863;28;20503;-89
2021/06/19 08:18:24;;;;;;;13.23;6.53;;;30.10;96.80;;;;;;5028850;28;20152;-88
2021/06/19 08:20:54;;;;;;;13.70;5.95;;;30.50;91.80;;;;;;5032718;28;20092;-87
2021/06/19 08:23:24;;;;;;;12.52;5.75;;;30.10;93.70;;;;;;5036876;28;20127;-88
2021/06/19 08:25:51;;;;;;;14.27;5.88;;;30.30;95.20;;;;;;5032776;28;20088;-89
2021/06/19 08:28:18;;;;;;;16.75;6.45;;;30.50;96.30;;;;;;5033971;28;20069;-90
2021/06/19 08:30:47;;;;;;;14.55;5.78;;;30.60;95.40;;;;;;5032173;28;20336;-90
2021/06/19 08:33:14;;;;;;;12.95;5.90;;;30.60;94.20;;;;;;5033288;28;20140;-89
2021/06/19 08:35:41;;;;;;;12.30;5.85;;;30.90;94.20;;;;;;5032959;28;20054;-89
2021/06/19 08:38:08;;;;;;;16.92;6.65;;;30.90;92.50;;;;;;5035989;28;20141;-90
2021/06/19 08:40:37;;;;;;;14.77;6.10;;;31.20;90.80;;;;;;5033702;28;20049;-89
2021/06/19 08:43:07;;;;;;;13.10;5.72;;;31.20;90.10;;;;;;5061159;28;20488;-91
2021/06/19 08:45:47;;;;;;;18.33;6.30;;;31.30;90.40;;;;;;5033951;28;20105;-90
2021/06/19 08:48:17;;;;;;;12.10;5.77;;;31.50;91.10;;;;;;5030620;28;20127;-89
2021/06/19 08:50:45;;;;;;;16.88;6.03;;;31.60;84.10;;;;;;5033695;28;20292;-90
2021/06/19 08:53:13;;;;;;;11.27;5.82;;;32.00;82.60;;;;;;5032828;28;20113;-91
2021/06/19 08:55:40;;;;;;;11.68;5.50;;;32.20;78.30;;;;;;5031208;28;20053;-93
2021/06/19 08:58:07;;;;;;;13.68;5.22;;;32.10;78.30;;;;;;5010859;28;20072;-92
2021/06/19 09:00:34;;;;;;;14.13;5.68;;;32.10;82.00;;;;;;5031378;28;20620;-91
2021/06/19 09:03:01;;;;;;;12.95;5.10;;;32.10;81.80;;;;;;5031893;28;20049;-89
2021/06/19 09:05:32;;;;;;;13.85;5.22;;;32.60;81.20;;;;;;5065245;28;20041;-91
2021/06/19 09:08:19;;;;;;;12.30;4.88;;;33.20;80.60;;;;;;5022357;28;20041;-89
2021/06/19 09:10:46;;;;;;;11.27;5.20;;;33.40;73.20;;;;;;5063462;28;20085;-88
2021/06/19 09:13:25;;;;;;;12.70;4.90;;;33.50;68.70;;;;;;5028993;28;20136;-88
2021/06/19 09:15:54;;;;;;;13.48;4.68;;;33.90;68.50;;;;;;5063834;28;20445;-89
2021/06/19 09:18:31;;;;;;;10.70;4.80;;;33.60;69.50;;;;;;5030684;28;20139;-89
2021/06/19 09:21:05;;;;;;;16.73;4.85;;;34.20;64.60;;;;;;5066544;28;20495;-90
2021/06/19 09:23:43;;;;;;;9.35;4.57;;;34.40;64.50;;;;;;5031892;28;20041;-88
2021/06/19 09:26:19;;;;;;;12.80;4.20;;;34.60;61.90;;;;;;5033588;28;20053;-88
2021/06/19 09:29:17;;;;;;;10.02;4.28;;;34.80;60.80;;;;;;5032587;28;20106;-88
2021/06/19 09:31:52;;;;;;;18.63;5.03;;;34.70;58.50;;;;;;5029801;28;20045;-87
2021/06/19 09:34:24;;;;;;;12.32;4.93;;;34.60;58.90;;;;;;5030555;28;20045;-88
2021/06/19 09:36:53;;;;;;;13.68;4.57;;;34.90;56.30;;;;;;5033797;28;20416;-90
2021/06/19 09:39:26;;;;;;;12.10;4.93;;;35.20;57.90;;;;;;5031616;28;20448;-89
2021/06/19 09:41:55;;;;;;;15.57;4.88;;;35.40;58.00;;;;;;5030360;28;20041;-87
2021/06/19 09:44:46;;;;;;;9.98;4.38;;;35.60;52.80;;;;;;5029662;28;20124;-87
2021/06/19 09:47:17;;;;;;;14.55;4.65;;;35.80;58.40;;;;;;5031069;28;20119;-88
2021/06/19 09:49:47;;;;;;;15.85;4.60;;;36.10;55.50;;;;;;5030736;28;20080;-87
2021/06/19 09:52:15;;;;;;;12.13;4.32;;;36.00;53.30;;;;;;5029680;28;20073;-88
2021/06/19 09:54:56;;;;;;;13.93;4.18;;;35.90;52.10;;;;;;5028165;28;20376;-89
2021/06/19 09:57:40;;;;;;;9.23;4.10;;;36.10;53.20;;;;;;5067060;28;20116;-88
2021/06/19 10:00:20;;;;;;;12.88;4.30;;;35.60;54.00;;;;;;5038353;28;20168;-88
2021/06/19 10:03:03;;;;;;;14.10;4.80;;;35.60;54.50;;;;;;5025209;28;20345;-88
2021/06/19 10:05:34;;;;;;;11.77;4.40;;;35.20;52.20;;;;;;5030591;28;20053;-88
2021/06/19 10:08:04;;;;;;;11.48;4.75;;;34.60;54.20;;;;;;5034279;28;20045;-93
2021/06/19 10:10:32;;;;;;;13.90;4.40;;;35.00;57.60;;;;;;5040009;28;20057;-90
2021/06/19 10:13:01;;;;;;;10.23;4.57;;;35.40;57.10;;;;;;5028123;28;20128;-88
2021/06/19 10:15:28;;;;;;;13.70;5.22;;;35.60;57.20;;;;;;5030448;28;20053;-88
2021/06/19 10:17:56;;;;;;;17.88;5.28;;;35.70;53.40;;;;;;5026147;28;20056;-87
2021/06/19 10:20:27;;;;;;;14.27;4.13;;;36.10;54.60;;;;;;5030383;28;20045;-89
2021/06/19 10:22:54;;;;;;;9.82;4.25;;;36.30;54.10;;;;;;5030383;28;20399;-90
2021/06/19 10:25:22;;;;;;;15.02;4.78;;;36.60;52.50;;;;;;5032079;28;20092;-90
2021/06/19 10:27:53;;;;;;;13.07;4.20;;;36.50;52.10;;;;;;5024975;28;20314;-93
2021/06/19 10:30:25;;;;;;;14.50;4.60;;;36.70;51.20;;;;;;5028673;28;20041;-89
2021/06/19 10:33:34;;;;;;;11.75;4.10;;;36.70;51.50;;;;;;5029910;28;20180;-90
2021/06/19 10:36:07;;;;;;;13.57;4.80;;;36.80;51.20;;;;;;5036047;28;20080;-92
2021/06/19 10:38:53;;;;;;;17.38;5.28;;;36.50;51.80;;;;;;5035329;28;20052;-91
2021/06/19 10:41:23;;;;;;;10.55;4.32;;;36.20;53.20;;;;;;5066663;28;20048;-88
2021/06/19 10:43:56;;;;;;;11.15;4.40;;;36.00;50.80;;;;;;5064630;28;20351;-88
2021/06/19 10:46:42;;;;;;;15.65;4.95;;;36.40;51.80;;;;;;5040006;28;20419;-89
2021/06/19 10:49:21;;;;;;;15.75;4.60;;;36.50;50.00;;;;;;5029896;28;20037;-86
2021/06/19 10:51:50;;;;;;;15.80;4.82;;;36.70;51.40;;;;;;5037108;28;20388;-89
2021/06/19 10:54:26;;;;;;;20.80;4.78;;;36.40;50.20;;;;;;5034492;28;20510;-88
2021/06/19 10:57:11;;;;;;;20.92;4.60;;;36.10;51.00;;;;;;5038680;28;20053;-88
2021/06/19 10:59:43;;;;;;;18.88;4.65;;;35.90;49.20;;;;;;5064940;28;20394;-90
2021/06/19 11:02:48;;;;;;;11.75;4.40;;;35.60;50.00;;;;;;5032839;28;20097;-90
2021/06/19 11:05:43;;;;;;;14.63;4.80;;;35.60;51.20;;;;;;5033289;28;20128;-90
2021/06/19 11:08:16;;;;;;;9.98;3.90;;;35.90;49.90;;;;;;5028475;28;20376;-91
2021/06/19 11:10:46;;;;;;;16.33;4.60;;;36.10;48.30;;;;;;5034395;28;20092;-87
2021/06/19 11:13:30;;;;;;;18.15;4.95;;;36.60;48.60;;;;;;5029627;28;20099;-87
2021/06/19 11:15:58;;;;;;;13.30;4.55;;;37.10;49.70;;;;;;5029180;28;20136;-87
2021/06/19 11:18:46;;;;;;;13.93;4.00;;;37.60;45.50;;;;;;5032722;28;20439;-87
2021/06/19 11:21:33;;;;;;;19.50;4.60;;;37.60;46.30;;;;;;5033404;28;20080;-88
2021/06/19 11:24:00;;;;;;;15.68;4.15;;;37.80;44.20;;;;;;5033110;28;20144;-89
2021/06/19 11:26:49;;;;;;;15.13;3.95;;;37.80;46.00;;;;;;5031404;28;20212;-87
2021/06/19 11:29:34;;;;;;;24.80;4.03;;;37.30;43.30;;;;;;5031546;28;20049;-91
2021/06/19 11:32:21;;;;;;;18.98;4.18;;;37.00;44.30;;;;;;5028708;28;20421;-85
2021/06/19 11:34:49;;;;;;;11.68;4.15;;;37.40;45.20;;;;;;5026158;28;20099;-86
2021/06/19 11:37:16;;;;;;;19.00;4.68;;;37.90;43.20;;;;;;5032366;28;20153;-85
2021/06/19 11:39:43;;;;;;;22.95;4.55;;;38.20;44.00;;;;;;5032987;28;20056;-84
2021/06/19 11:42:10;;;;;;;17.45;4.18;;;38.90;43.90;;;;;;5032720;28;20042;-86
2021/06/19 11:44:45;;;;;;;17.25;4.43;;;38.80;39.10;;;;;;5032794;28;20500;-85
2021/06/19 11:47:13;;;;;;;17.02;3.42;;;39.20;40.80;;;;;;5033240;28;20144;-85
2021/06/19 11:49:44;;;;;;;18.58;4.47;;;39.50;36.00;;;;;;5030341;28;20439;-86
2021/06/19 11:52:20;;;;;;;11.20;4.63;;;39.60;37.50;;;;;;5031002;28;20105;-86
2021/06/19 11:54:52;;;;;;;18.42;3.72;;;39.90;38.60;;;;;;5032481;28;20045;-90
2021/06/19 11:57:25;;;;;;;22.77;4.55;;;40.70;39.00;;;;;;5030660;28;20151;-90
2021/06/19 12:00:07;;;;;;;20.13;3.80;;;40.50;37.90;;;;;;5063655;28;20133;-91
2021/06/19 12:02:40;;;;;;;18.55;4.15;;;40.50;36.80;;;;;;5029812;28;20189;-92
2021/06/19 12:05:14;;;;;;;15.73;4.13;;;40.40;36.60;;;;;;5031725;28;20471;-90
2021/06/19 12:07:41;;;;;;;17.40;3.75;;;40.00;37.10;;;;;;5030742;28;20057;-91
2021/06/19 12:10:29;;;;;;;13.63;4.00;;;39.90;37.00;;;;;;5031105;28;20073;-91
2021/06/19 12:13:02;;;;;;;14.32;4.35;;;39.90;35.50;;;;;;5031732;28;20136;-89
2021/06/19 12:15:30;;;;;;;15.48;3.63;;;39.90;36.70;;;;;;5031102;28;20484;-91
2021/06/19 12:17:58;;;;;;;16.60;4.45;;;40.00;37.10;;;;;;5031257;28;20049;-89
2021/06/19 12:20:26;;;;;;;12.38;4.22;;;39.90;38.30;;;;;;5031711;28;20109;-90
2021/06/19 12:22:53;;;;;;;16.95;3.97;;;39.90;38.90;;;;;;5030077;28;20037;-90
2021/06/19 12:25:33;;;;;;;12.82;4.15;;;39.80;37.80;;;;;;5031414;28;20494;-88
2021/06/19 12:28:01;;;;;;;21.63;4.72;;;39.50;38.90;;;;;;5032057;28;20301;-90
2021/06/19 12:30:28;;;;;;;16.90;4.57;;;39.90;37.00;;;;;;5030353;28;20050;-89
2021/06/19 12:32:56;;;;;;;12.57;4.05;;;40.30;36.70;;;;;;5031112;28;20158;-89
2021/06/19 12:35:24;;;;;;;15.60;4.30;;;40.30;36.30;;;;;;5030173;28;20045;-89
2021/06/19 12:37:59;;;;;;;18.15;4.25;;;40.10;36.70;;;;;;5031483;28;20154;-89
2021/06/19 12:40:38;;;;;;;15.68;4.00;;;40.10;36.20;;;;;;5023484;28;20069;-88
2021/06/19 12:43:09;;;;;;;13.45;4.47;;;40.10;37.50;;;;;;5031939;28;20080;-93
2021/06/19 12:45:38;;;;;;;13.02;3.75;;;40.30;38.00;;;;;;5032091;28;20099;-90
2021/06/19 12:48:17;;;;;;;15.48;3.85;;;40.30;36.40;;;;;;5031874;28;20049;-94
2021/06/19 12:50:46;;;;;;;13.90;4.80;;;40.20;38.30;;;;;;5038577;28;20436;-94
2021/06/19 12:53:15;;;;;;;20.27;4.90;;;40.30;39.30;;;;;;5037864;28;20099;-91
2021/06/19 12:55:55;;;;;;;11.60;4.25;;;40.30;38.80;;;;;;5035896;28;20465;-94
2021/06/19 12:58:38;;;;;;;14.07;4.10;;;40.70;37.80;;;;;;5037169;28;20073;-94
2021/06/19 13:01:28;;;;;;;18.58;4.53;;;41.20;35.40;;;;;;5032560;28;20727;-90
2021/06/19 13:03:59;;;;;;;13.77;5.00;;;40.90;37.70;;;;;;5045424;28;20140;-91